createdAt,value
2022-08-06T00:00:03.349Z,20.65
2022-08-06T00:02:25.766Z,20.67
2022-08-06T00:04:56.916Z,20.70
2022-08-06T00:07:25.728Z,20.57
2022-08-06T00:10:00.454Z,20.60
2022-08-06T00:15:12.745Z,20.51
2022-08-06T00:17:43.720Z,20.44
2022-08-06T00:20:11.240Z,20.37
2022-08-06T00:22:38.405Z,20.38
2022-08-06T00:25:08.849Z,20.47
2022-08-06T00:27:38.638Z,20.49
2022-08-06T00:30:18.360Z,20.49
2022-08-06T00:32:51.344Z,20.39
2022-08-06T00:35:23.539Z,20.54
2022-08-06T00:37:58.072Z,20.53
2022-08-06T00:40:28.774Z,20.43
2022-08-06T00:42:57.812Z,20.30
2022-08-06T00:45:25.380Z,20.41
2022-08-06T00:48:03.145Z,20.35
2022-08-06T00:50:32.654Z,20.35
2022-08-06T00:53:03.743Z,20.31
2022-08-06T00:55:36.343Z,20.32
2022-08-06T00:58:06.963Z,20.29
2022-08-06T01:00:40.485Z,20.31
2022-08-06T01:03:07.669Z,20.28
2022-08-06T01:06:52.644Z,20.09
2022-08-06T01:08:41.594Z,20.03
2022-08-06T01:11:08.702Z,20.14
2022-08-06T01:14:03.335Z,20.14
2022-08-06T01:16:30.829Z,20.03
2022-08-06T01:19:29.673Z,20.03
2022-08-06T01:22:41.403Z,19.97
2022-08-06T01:25:47.437Z,19.89
2022-08-06T01:28:29.469Z,19.91
2022-08-06T01:31:20.715Z,19.94
2022-08-06T01:33:55.308Z,19.86
2022-08-06T01:36:32.639Z,19.86
2022-08-06T01:39:02.028Z,19.88
2022-08-06T01:41:56.239Z,19.89
2022-08-06T01:44:30.690Z,19.82
2022-08-06T01:47:02.073Z,19.99
2022-08-06T01:50:00.251Z,19.91
2022-08-06T01:52:29.660Z,19.94
2022-08-06T01:54:59.960Z,19.96
2022-08-06T01:57:32.755Z,20.02
2022-08-06T02:00:17.018Z,20.05
2022-08-06T02:02:47.454Z,19.95
2022-08-06T02:05:21.523Z,20.01
2022-08-06T02:08:36.552Z,19.94
2022-08-06T02:10:37.878Z,19.96
2022-08-06T02:13:06.567Z,19.90
2022-08-06T02:15:58.944Z,19.88
2022-08-06T02:18:35.445Z,19.94
2022-08-06T02:21:19.118Z,20.02
2022-08-06T02:23:50.450Z,20.00
2022-08-06T02:26:20.313Z,20.09
2022-08-06T02:28:50.223Z,20.09
2022-08-06T02:31:17.820Z,20.05
2022-08-06T02:34:02.826Z,20.03
2022-08-06T02:36:50.515Z,20.03
2022-08-06T02:39:30.046Z,20.03
2022-08-06T02:42:22.048Z,19.93
2022-08-06T02:45:03.671Z,19.87
2022-08-06T02:48:11.206Z,19.80
2022-08-06T02:50:45.632Z,19.73
2022-08-06T02:53:24.958Z,19.76
2022-08-06T02:55:57.213Z,19.66
2022-08-06T02:58:57.990Z,19.66
2022-08-06T03:01:43.192Z,19.55
2022-08-06T03:04:12.621Z,19.52
2022-08-06T03:06:43.488Z,19.53
2022-08-06T03:09:15.000Z,19.51
2022-08-06T03:11:47.232Z,19.37
2022-08-06T03:15:03.930Z,19.28
2022-08-06T03:17:03.916Z,19.19
2022-08-06T03:19:58.023Z,19.20
2022-08-06T03:22:35.389Z,19.11
2022-08-06T03:25:11.355Z,19.10
2022-08-06T03:27:43.803Z,19.08
2022-08-06T03:30:31.715Z,19.06
2022-08-06T03:33:28.493Z,19.07
2022-08-06T03:36:01.068Z,19.04
2022-08-06T03:38:31.645Z,19.09
2022-08-06T03:41:01.620Z,19.00
2022-08-06T03:43:46.069Z,19.03
2022-08-06T03:46:22.405Z,19.02
2022-08-06T03:48:51.331Z,19.03
2022-08-06T03:51:50.697Z,19.08
2022-08-06T03:54:09.456Z,19.20
2022-08-06T03:56:46.240Z,19.23
2022-08-06T03:59:15.371Z,19.35
2022-08-06T04:01:50.388Z,19.45
2022-08-06T04:04:25.955Z,19.54
2022-08-06T04:06:56.400Z,19.62
2022-08-06T04:09:57.482Z,19.68
2022-08-06T04:13:07.315Z,19.81
2022-08-06T04:15:04.668Z,20.07
2022-08-06T04:17:40.688Z,20.17
2022-08-06T04:20:12.393Z,20.47
2022-08-06T04:23:05.024Z,21.15
2022-08-06T04:25:28.429Z,21.98
2022-08-06T04:27:56.584Z,22.67
2022-08-06T04:30:27.499Z,23.25
2022-08-06T04:33:00.326Z,24.21
2022-08-06T04:36:03.352Z,25.06
2022-08-06T04:38:28.277Z,25.32
2022-08-06T04:40:58.453Z,25.59
2022-08-06T04:43:38.089Z,26.09
2022-08-06T04:46:16.507Z,26.56
2022-08-06T04:48:47.046Z,26.62
2022-08-06T04:51:17.303Z,26.72
2022-08-06T04:54:05.850Z,27.16
2022-08-06T04:56:37.437Z,27.29
2022-08-06T04:59:05.776Z,27.62
2022-08-06T05:01:40.942Z,28.11
2022-08-06T05:04:22.612Z,29.05
2022-08-06T05:06:57.287Z,28.92
2022-08-06T05:09:29.305Z,31.14
2022-08-06T05:12:17.410Z,32.61
2022-08-06T05:15:02.165Z,34.68
2022-08-06T05:17:34.811Z,35.45
2022-08-06T05:20:12.897Z,34.08
2022-08-06T05:23:02.758Z,35.19
2022-08-06T05:25:36.072Z,36.88
2022-08-06T05:28:11.151Z,35.77
2022-08-06T05:31:04.716Z,37.43
2022-08-06T05:33:38.738Z,36.45
2022-08-06T05:36:08.104Z,37.02
2022-08-06T05:38:58.980Z,37.44
2022-08-06T05:41:29.532Z,39.05
2022-08-06T05:44:01.431Z,39.62
2022-08-06T05:46:35.159Z,38.57
2022-08-06T05:49:12.146Z,38.63
2022-08-06T05:52:05.548Z,34.90
2022-08-06T05:54:43.151Z,38.09
2022-08-06T05:57:45.530Z,40.31
2022-08-06T06:00:31.463Z,40.85
2022-08-06T06:03:02.446Z,39.52
2022-08-06T06:06:04.821Z,40.32
2022-08-06T06:08:38.049Z,38.45
2022-08-06T06:11:09.771Z,38.73
2022-08-06T06:13:40.447Z,37.07
2022-08-06T06:16:58.351Z,36.91
2022-08-06T06:19:51.904Z,39.32
2022-08-06T06:22:50.995Z,39.20
2022-08-06T06:25:38.742Z,40.03
2022-08-06T06:28:27.809Z,41.31
2022-08-06T06:31:05.815Z,42.43
2022-08-06T06:34:13.624Z,41.98
2022-08-06T06:36:46.764Z,41.26
2022-08-06T06:39:25.947Z,41.46
2022-08-06T06:42:07.709Z,41.02
2022-08-06T06:45:02.994Z,38.99
2022-08-06T06:47:58.101Z,41.18
2022-08-06T06:50:42.414Z,35.67
2022-08-06T06:53:11.978Z,36.90
2022-08-06T06:55:56.958Z,37.39
2022-08-06T06:58:37.844Z,36.94
2022-08-06T07:01:12.196Z,36.79
2022-08-06T07:03:55.749Z,38.46
2022-08-06T07:06:28.776Z,39.97
2022-08-06T07:09:14.611Z,39.41
2022-08-06T07:12:02.956Z,37.01
2022-08-06T07:14:33.397Z,38.71
2022-08-06T07:17:46.067Z,35.82
2022-08-06T07:19:54.163Z,35.51
2022-08-06T07:22:24.032Z,39.21
2022-08-06T07:25:00.799Z,39.74
2022-08-06T07:27:41.214Z,39.46
2022-08-06T07:30:14.489Z,40.97
2022-08-06T07:32:45.011Z,39.71
2022-08-06T07:35:17.996Z,39.12
2022-08-06T07:37:57.690Z,39.70
2022-08-06T07:40:32.588Z,39.27
2022-08-06T07:43:21.517Z,37.69
2022-08-06T07:45:55.451Z,36.27
2022-08-06T07:48:52.449Z,35.90
2022-08-06T07:51:33.732Z,35.81
2022-08-06T07:54:09.704Z,36.31
2022-08-06T07:57:00.666Z,34.50
2022-08-06T07:59:29.858Z,37.50
2022-08-06T08:01:59.244Z,36.57
2022-08-06T08:04:53.734Z,35.78
2022-08-06T08:07:37.802Z,36.21
2022-08-06T08:10:09.715Z,36.71
2022-08-06T08:12:38.997Z,35.74
2022-08-06T08:15:18.099Z,38.06
2022-08-06T08:17:57.623Z,37.35
2022-08-06T08:20:34.623Z,37.61
2022-08-06T08:23:08.483Z,37.36
2022-08-06T08:25:52.576Z,38.33
2022-08-06T08:28:19.624Z,38.77
2022-08-06T08:30:49.698Z,37.80
2022-08-06T08:33:19.115Z,37.39
2022-08-06T08:36:00.718Z,39.37
2022-08-06T08:38:32.352Z,39.13
2022-08-06T08:41:04.017Z,38.55
2022-08-06T08:43:58.718Z,38.50
2022-08-06T08:46:30.782Z,35.56
2022-08-06T08:49:04.391Z,36.65
2022-08-06T08:51:36.661Z,37.50
2022-08-06T08:54:11.733Z,36.81
2022-08-06T08:57:06.462Z,37.33
2022-08-06T08:59:59.847Z,36.85
2022-08-06T09:02:19.395Z,36.13
2022-08-06T09:04:46.924Z,37.03
2022-08-06T09:07:19.382Z,37.53
2022-08-06T09:10:01.313Z,37.48
2022-08-06T09:12:33.165Z,37.28
2022-08-06T09:15:01.337Z,37.03
2022-08-06T09:18:12.540Z,36.26
2022-08-06T09:20:17.814Z,35.79
2022-08-06T09:22:50.238Z,36.43
2022-08-06T09:25:49.907Z,36.28
2022-08-06T09:28:30.307Z,36.96
2022-08-06T09:31:22.157Z,35.98
2022-08-06T09:34:28.531Z,36.58
2022-08-06T09:37:05.007Z,37.31
2022-08-06T09:39:46.303Z,37.34
2022-08-06T09:42:38.823Z,37.45
2022-08-06T09:45:15.286Z,36.17
2022-08-06T09:47:47.311Z,37.11
2022-08-06T09:50:37.897Z,37.40
2022-08-06T09:53:06.025Z,37.15
2022-08-06T09:55:41.522Z,37.09
2022-08-06T09:58:08.910Z,37.04
2022-08-06T10:00:38.743Z,37.77
2022-08-06T10:04:02.469Z,38.10
2022-08-06T10:06:14.823Z,37.43
2022-08-06T10:08:49.423Z,37.38
2022-08-06T10:11:50.145Z,36.63
2022-08-06T10:14:25.962Z,36.33
2022-08-06T10:17:04.878Z,36.51
2022-08-06T10:19:36.213Z,35.75
2022-08-06T10:22:13.994Z,36.68
2022-08-06T10:24:48.808Z,37.75
2022-08-06T10:27:24.604Z,36.78
2022-08-06T10:29:53.319Z,36.95
2022-08-06T10:32:33.538Z,38.00
2022-08-06T10:35:12.156Z,36.38
2022-08-06T10:37:49.537Z,36.80
2022-08-06T10:40:31.192Z,37.51
2022-08-06T10:43:08.408Z,37.69
2022-08-06T10:45:48.567Z,38.87
2022-08-06T10:48:58.492Z,37.93
2022-08-06T10:51:05.612Z,38.28
2022-08-06T10:54:01.720Z,38.23
2022-08-06T10:56:32.427Z,38.06
2022-08-06T10:59:06.316Z,37.88
2022-08-06T11:01:56.198Z,38.65
2022-08-06T11:04:45.399Z,38.83
2022-08-06T11:07:17.734Z,38.14
2022-08-06T11:10:19.580Z,38.85
2022-08-06T11:13:07.190Z,38.34
2022-08-06T11:15:38.634Z,38.97
2022-08-06T11:18:12.322Z,38.23
2022-08-06T11:20:47.630Z,38.92
2022-08-06T11:23:52.285Z,38.79
2022-08-06T11:26:05.196Z,37.30
2022-08-06T11:28:31.919Z,37.99
2022-08-06T11:31:01.862Z,38.78
2022-08-06T11:33:36.283Z,38.12
2022-08-06T11:36:10.759Z,38.20
2022-08-06T11:38:50.403Z,37.79
2022-08-06T11:41:23.670Z,37.96
2022-08-06T11:44:07.327Z,37.95
2022-08-06T11:46:36.030Z,38.58
2022-08-06T11:49:07.341Z,39.03
2022-08-06T11:51:44.545Z,38.67
2022-08-06T11:54:16.483Z,38.25
2022-08-06T11:57:08.282Z,38.57
2022-08-06T11:59:56.239Z,38.09
2022-08-06T12:02:44.607Z,38.54
2022-08-06T12:05:14.094Z,38.62
2022-08-06T12:07:52.527Z,38.84
2022-08-06T12:10:29.135Z,37.42
2022-08-06T12:12:58.467Z,37.90
2022-08-06T12:15:59.302Z,38.36
2022-08-06T12:18:29.838Z,38.80
2022-08-06T12:21:00.157Z,38.96
2022-08-06T12:23:54.666Z,38.98
2022-08-06T12:26:13.937Z,39.07
2022-08-06T12:28:42.096Z,39.23
2022-08-06T12:31:35.982Z,39.05
2022-08-06T12:33:58.185Z,38.41
2022-08-06T12:36:35.440Z,38.86
2022-08-06T12:39:12.034Z,38.27
2022-08-06T12:41:47.227Z,38.36
2022-08-06T12:44:55.934Z,37.25
2022-08-06T12:47:13.679Z,37.16
2022-08-06T12:49:43.852Z,37.91
2022-08-06T12:52:19.338Z,37.32
2022-08-06T12:54:49.094Z,37.08
2022-08-06T12:57:28.817Z,36.97
2022-08-06T13:00:15.536Z,37.52
2022-08-06T13:02:42.672Z,37.60
2022-08-06T13:05:14.463Z,37.33
2022-08-06T13:07:44.321Z,36.73
2022-08-06T13:10:34.832Z,36.65
2022-08-06T13:14:13.953Z,36.40
2022-08-06T13:16:07.855Z,36.62
2022-08-06T13:18:47.290Z,35.73
2022-08-06T13:21:21.850Z,36.03
2022-08-06T13:23:52.990Z,36.11
2022-08-06T13:26:25.999Z,35.84
2022-08-06T13:30:30.853Z,35.63
2022-08-06T13:32:01.881Z,36.03
2022-08-06T13:34:30.233Z,36.50
2022-08-06T13:37:04.906Z,36.15
2022-08-06T13:39:32.825Z,36.08
2022-08-06T13:42:15.142Z,36.20
2022-08-06T13:44:44.968Z,36.51
2022-08-06T13:47:39.092Z,36.20
2022-08-06T13:50:08.369Z,36.30
2022-08-06T13:52:35.398Z,36.61
2022-08-06T13:55:02.117Z,36.46
2022-08-06T13:57:44.234Z,36.64
2022-08-06T14:00:11.315Z,36.32
2022-08-06T14:02:39.175Z,36.08
2022-08-06T14:05:20.019Z,36.46
2022-08-06T14:07:50.329Z,36.78
2022-08-06T14:10:18.465Z,36.78
2022-08-06T14:13:12.727Z,36.43
2022-08-06T14:15:44.711Z,36.07
2022-08-06T14:18:11.978Z,35.93
2022-08-06T14:20:39.594Z,35.90
2022-08-06T14:23:08.786Z,36.13
2022-08-06T14:26:00.502Z,36.34
2022-08-06T14:28:22.679Z,35.72
2022-08-06T14:30:52.071Z,35.98
2022-08-06T14:33:26.586Z,35.48
2022-08-06T14:36:04.338Z,35.74
2022-08-06T14:38:34.406Z,35.92
2022-08-06T14:41:49.826Z,35.52
2022-08-06T14:44:27.829Z,34.64
2022-08-06T14:46:54.753Z,34.24
2022-08-06T14:49:21.583Z,33.15
2022-08-06T14:52:19.844Z,33.27
2022-08-06T14:54:36.574Z,33.07
2022-08-06T14:57:15.072Z,32.87
2022-08-06T14:59:48.678Z,32.54
2022-08-06T15:02:20.157Z,32.17
2022-08-06T15:04:52.152Z,32.28
2022-08-06T15:07:40.897Z,32.12
2022-08-06T15:10:28.294Z,31.84
2022-08-06T15:13:01.405Z,31.83
2022-08-06T15:15:37.009Z,31.63
2022-08-06T15:18:40.150Z,31.42
2022-08-06T15:21:01.051Z,31.43
2022-08-06T15:23:30.924Z,31.42
2022-08-06T15:26:47.522Z,31.20
2022-08-06T15:29:04.642Z,31.13
2022-08-06T15:31:37.302Z,30.80
2022-08-06T15:34:07.481Z,30.75
2022-08-06T15:36:36.187Z,30.81
2022-08-06T15:39:09.475Z,30.58
2022-08-06T15:41:36.691Z,30.59
2022-08-06T15:44:10.303Z,30.25
2022-08-06T15:46:37.194Z,30.58
2022-08-06T15:49:11.848Z,30.78
2022-08-06T15:51:38.741Z,31.05
2022-08-06T15:54:05.344Z,30.57
2022-08-06T15:56:33.912Z,30.71
2022-08-06T15:59:12.038Z,30.43
2022-08-06T16:01:52.277Z,30.38
2022-08-06T16:04:28.269Z,30.22
2022-08-06T16:06:56.785Z,30.16
2022-08-06T16:09:28.080Z,30.05
2022-08-06T16:11:57.261Z,30.03
2022-08-06T16:14:33.249Z,30.14
2022-08-06T16:17:06.253Z,30.32
2022-08-06T16:19:48.723Z,30.01
2022-08-06T16:22:16.690Z,30.02
2022-08-06T16:24:43.512Z,30.14
2022-08-06T16:27:10.435Z,30.06
2022-08-06T16:29:37.307Z,29.55
2022-08-06T16:32:04.819Z,29.58
2022-08-06T16:34:36.185Z,29.45
2022-08-06T16:37:28.399Z,29.39
2022-08-06T16:39:57.239Z,29.41
2022-08-06T16:42:27.235Z,29.23
2022-08-06T16:45:01.139Z,29.23
2022-08-06T16:48:18.150Z,29.46
2022-08-06T16:50:19.249Z,29.27
2022-08-06T16:54:07.707Z,29.24
2022-08-06T16:55:42.311Z,29.05
2022-08-06T17:00:59.946Z,28.86
2022-08-06T17:03:45.790Z,28.76
2022-08-06T17:06:17.437Z,28.86
2022-08-06T17:08:52.828Z,28.77
2022-08-06T17:11:45.343Z,28.81
2022-08-06T17:14:13.441Z,28.49
2022-08-06T17:16:41.085Z,28.41
2022-08-06T17:19:17.466Z,28.15
2022-08-06T17:21:52.925Z,28.16
2022-08-06T17:24:32.798Z,28.17
2022-08-06T17:27:10.205Z,27.89
2022-08-06T17:32:32.796Z,27.75
2022-08-06T17:35:12.487Z,27.63
2022-08-06T17:40:34.286Z,27.47
2022-08-06T17:43:12.706Z,27.54
2022-08-06T17:45:52.234Z,27.36
2022-08-06T17:48:30.742Z,27.30
2022-08-06T17:50:58.337Z,27.27
2022-08-06T17:53:52.354Z,27.25
2022-08-06T17:56:13.242Z,27.26
2022-08-06T17:59:06.386Z,27.04
2022-08-06T18:01:45.645Z,27.01
2022-08-06T18:04:21.754Z,26.94
2022-08-06T18:06:55.819Z,26.81
2022-08-06T18:10:09.436Z,26.80
2022-08-06T18:12:11.958Z,26.75
2022-08-06T18:14:38.966Z,26.71
2022-08-06T18:17:06.864Z,26.69
2022-08-06T18:19:36.423Z,26.66
2022-08-06T18:22:21.622Z,26.57
2022-08-06T18:24:52.085Z,26.57
2022-08-06T18:27:53.738Z,26.58
2022-08-06T18:30:10.401Z,26.53
2022-08-06T18:32:37.976Z,26.54
2022-08-06T18:35:17.327Z,26.42
2022-08-06T18:38:01.122Z,26.32
2022-08-06T18:40:38.516Z,26.28
2022-08-06T18:43:09.010Z,26.25
2022-08-06T18:45:59.061Z,26.16
2022-08-06T18:48:27.154Z,26.03
2022-08-06T18:50:57.772Z,25.88
2022-08-06T18:54:00.517Z,25.80
2022-08-06T18:56:11.767Z,25.59
2022-08-06T18:58:47.176Z,25.61
2022-08-06T19:01:20.300Z,25.69
2022-08-06T19:03:50.228Z,25.53
2022-08-06T19:06:18.336Z,25.58
2022-08-06T19:08:59.029Z,25.27
2022-08-06T19:11:38.781Z,25.34
2022-08-06T19:14:19.060Z,25.16
2022-08-06T19:16:50.490Z,25.14
2022-08-06T19:19:46.093Z,25.04
2022-08-06T19:22:09.759Z,25.00
2022-08-06T19:24:39.461Z,24.95
2022-08-06T19:27:06.212Z,24.92
2022-08-06T19:29:58.498Z,24.78
2022-08-06T19:32:28.675Z,24.68
2022-08-06T19:35:00.353Z,24.54
2022-08-06T19:40:38.334Z,24.44
2022-08-06T19:44:24.799Z,24.34
2022-08-06T19:46:29.905Z,24.24
2022-08-06T19:48:39.555Z,24.13
2022-08-06T19:51:57.334Z,24.09
2022-08-06T19:53:59.548Z,24.03
2022-08-06T19:56:30.507Z,24.15
2022-08-06T20:00:50.802Z,24.03
2022-08-06T20:02:08.191Z,23.94
2022-08-06T20:04:31.599Z,23.87
2022-08-06T20:07:05.206Z,23.89
2022-08-06T20:10:00.111Z,24.02
2022-08-06T20:12:32.196Z,23.76
2022-08-06T20:15:02.515Z,23.64
2022-08-06T20:17:29.678Z,23.70
2022-08-06T20:20:05.446Z,23.75
2022-08-06T20:22:39.595Z,23.64
2022-08-06T20:25:17.987Z,23.69
2022-08-06T20:29:08.361Z,23.77
2022-08-06T20:30:44.636Z,23.70
2022-08-06T20:33:25.469Z,23.68
2022-08-06T20:35:56.837Z,23.48
2022-08-06T20:38:33.297Z,23.49
2022-08-06T20:41:59.300Z,23.41
2022-08-06T20:44:05.459Z,23.28
2022-08-06T20:49:29.286Z,23.15
2022-08-06T20:52:10.939Z,23.16
2022-08-06T20:54:49.914Z,23.29
2022-08-06T20:57:19.090Z,23.20
2022-08-06T20:59:50.824Z,23.14
2022-08-06T21:02:25.635Z,23.15
2022-08-06T21:05:12.524Z,23.27
2022-08-06T21:07:46.082Z,23.13
2022-08-06T21:10:17.776Z,23.06
2022-08-06T21:12:58.677Z,22.96
2022-08-06T21:15:54.532Z,22.91
2022-08-06T21:18:20.550Z,22.90
2022-08-06T21:20:51.218Z,22.83
2022-08-06T21:23:26.215Z,22.80
2022-08-06T21:26:11.612Z,22.80
2022-08-06T21:28:42.150Z,22.75
2022-08-06T21:31:10.505Z,22.65
2022-08-06T21:33:42.879Z,22.71
2022-08-06T21:36:19.760Z,22.61
2022-08-06T21:38:46.376Z,22.53
2022-08-06T21:41:54.416Z,22.54
2022-08-06T21:44:18.109Z,22.49
2022-08-06T21:46:58.368Z,22.48
2022-08-06T21:50:00.654Z,22.39
2022-08-06T21:52:25.704Z,22.44
2022-08-06T21:54:55.792Z,22.42
2022-08-06T21:57:24.854Z,22.30
2022-08-06T21:59:52.312Z,22.27
2022-08-06T22:02:22.096Z,22.26
2022-08-06T22:05:00.482Z,22.26
2022-08-06T22:08:05.816Z,22.16
2022-08-06T22:10:15.585Z,22.15
2022-08-06T22:13:12.628Z,22.05
2022-08-06T22:15:45.818Z,22.03
2022-08-06T22:18:17.166Z,21.90
2022-08-06T22:20:48.170Z,21.98
2022-08-06T22:23:17.471Z,21.74
2022-08-06T22:25:45.428Z,21.93
2022-08-06T22:28:23.784Z,21.76
2022-08-06T22:31:01.333Z,21.82
2022-08-06T22:33:33.487Z,21.71
2022-08-06T22:36:18.071Z,21.66
2022-08-06T22:39:01.665Z,21.76
2022-08-06T22:41:42.556Z,21.66
2022-08-06T22:44:14.955Z,21.59
2022-08-06T22:46:57.890Z,21.71
2022-08-06T22:49:24.942Z,21.75
2022-08-06T22:51:51.842Z,21.63
2022-08-06T22:54:28.728Z,21.57
2022-08-06T22:57:05.899Z,21.52
2022-08-06T23:00:12.074Z,21.35
2022-08-06T23:02:21.996Z,21.38
2022-08-06T23:04:50.567Z,21.47
2022-08-06T23:07:25.370Z,21.37
2022-08-06T23:09:58.537Z,21.36
2022-08-06T23:12:36.511Z,21.43
2022-08-06T23:15:19.837Z,21.36
2022-08-06T23:18:00.073Z,21.31
2022-08-06T23:20:32.974Z,21.46
2022-08-06T23:23:02.597Z,21.35
2022-08-06T23:26:02.353Z,21.42
2022-08-06T23:28:16.898Z,21.39
2022-08-06T23:30:44.529Z,21.49
2022-08-06T23:33:11.112Z,21.57
2022-08-06T23:35:38.141Z,21.71
2022-08-06T23:38:33.655Z,21.60
2022-08-06T23:40:55.366Z,21.50
2022-08-06T23:43:23.298Z,21.19
2022-08-06T23:45:50.607Z,21.35
2022-08-06T23:48:17.534Z,21.22
2022-08-06T23:50:52.765Z,21.27
2022-08-06T23:54:08.995Z,21.10
2022-08-06T23:56:13.851Z,21.16
2022-08-06T23:58:48.948Z,21.03
